sensor_id;sensor_type;location;lat;lon;timestamp;pressure;altitude;pressure_sealevel;temperature;humidity
75317;BME280;63913;51.492;10.368;2022-11-20T00:01:25;98057.88;;;-4.76;73.33
75317;BME280;63913;51.492;10.368;2022-11-20T00:03:51;98059.50;;;-4.76;73.30
75317;BME280;63913;51.492;10.368;2022-11-20T00:06:19;98050.25;;;-4.77;73.33
75317;BME280;63913;51.492;10.368;2022-11-20T00:08:45;98043.59;;;-4.77;73.11
75317;BME280;63913;51.492;10.368;2022-11-20T00:11:13;98043.41;;;-4.80;72.88
75317;BME280;63913;51.492;10.368;2022-11-20T00:13:39;98040.78;;;-4.81;73.29
75317;BME280;63913;51.492;10.368;2022-11-20T00:16:06;98039.97;;;-4.92;73.61
75317;BME280;63913;51.492;10.368;2022-11-20T00:18:35;98036.38;;;-4.95;73.97
75317;BME280;63913;51.492;10.368;2022-11-20T00:21:10;98034.75;;;-4.95;73.93
75317;BME280;63913;51.492;10.368;2022-11-20T00:23:36;98037.13;;;-4.96;73.63
75317;BME280;63913;51.492;10.368;2022-11-20T00:26:03;98025.94;;;-4.90;73.41
75317;BME280;63913;51.492;10.368;2022-11-20T00:28:29;98025.94;;;-4.90;73.51
75317;BME280;63913;51.492;10.368;2022-11-20T00:33:28;98038.13;;;-4.94;73.49
75317;BME280;63913;51.492;10.368;2022-11-20T00:35:53;98041.09;;;-4.88;73.03
75317;BME280;63913;51.492;10.368;2022-11-20T00:38:18;98042.28;;;-4.95;73.05
75317;BME280;63913;51.492;10.368;2022-11-20T00:40:44;98040.41;;;-4.97;72.87
75317;BME280;63913;51.492;10.368;2022-11-20T00:43:09;98038.97;;;-5.06;73.33
75317;BME280;63913;51.492;10.368;2022-11-20T00:45:34;98037.22;;;-5.07;73.33
75317;BME280;63913;51.492;10.368;2022-11-20T00:47:59;98039.72;;;-5.07;73.03
75317;BME280;63913;51.492;10.368;2022-11-20T00:50:25;98044.50;;;-5.10;73.08
75317;BME280;63913;51.492;10.368;2022-11-20T00:52:50;98046.13;;;-5.10;73.05
75317;BME280;63913;51.492;10.368;2022-11-20T00:55:15;98035.13;;;-5.12;73.20
75317;BME280;63913;51.492;10.368;2022-11-20T00:57:41;98031.97;;;-5.10;73.22
75317;BME280;63913;51.492;10.368;2022-11-20T01:00:06;98034.59;;;-5.08;73.42
75317;BME280;63913;51.492;10.368;2022-11-20T01:02:32;98043.72;;;-5.09;73.10
75317;BME280;63913;51.492;10.368;2022-11-20T01:04:57;98034.78;;;-5.17;73.34
75317;BME280;63913;51.492;10.368;2022-11-20T01:07:22;98041.50;;;-5.27;73.80
75317;BME280;63913;51.492;10.368;2022-11-20T01:09:47;98041.19;;;-5.20;74.05
75317;BME280;63913;51.492;10.368;2022-11-20T01:12:13;98052.97;;;-5.19;73.29
75317;BME280;63913;51.492;10.368;2022-11-20T01:14:38;98040.63;;;-5.28;73.83
75317;BME280;63913;51.492;10.368;2022-11-20T01:17:03;98044.22;;;-5.24;74.11
75317;BME280;63913;51.492;10.368;2022-11-20T01:19:29;98036.50;;;-5.27;74.83
75317;BME280;63913;51.492;10.368;2022-11-20T01:21:55;98033.91;;;-5.17;73.78
75317;BME280;63913;51.492;10.368;2022-11-20T01:24:21;98035.00;;;-5.14;73.48
75317;BME280;63913;51.492;10.368;2022-11-20T01:26:48;98038.03;;;-5.18;73.42
75317;BME280;63913;51.492;10.368;2022-11-20T01:29:17;98026.38;;;-5.17;73.16
75317;BME280;63913;51.492;10.368;2022-11-20T01:31:43;98021.28;;;-5.19;72.76
75317;BME280;63913;51.492;10.368;2022-11-20T01:34:11;98028.97;;;-5.27;73.17
75317;BME280;63913;51.492;10.368;2022-11-20T01:36:38;98021.56;;;-5.26;72.92
75317;BME280;63913;51.492;10.368;2022-11-20T01:39:06;98020.97;;;-5.33;73.14
75317;BME280;63913;51.492;10.368;2022-11-20T01:41:33;98021.66;;;-5.36;73.64
75317;BME280;63913;51.492;10.368;2022-11-20T01:44:20;98017.50;;;-5.35;73.76
75317;BME280;63913;51.492;10.368;2022-11-20T01:46:53;98016.72;;;-5.34;74.15
75317;BME280;63913;51.492;10.368;2022-11-20T01:49:24;98005.19;;;-5.32;73.70
75317;BME280;63913;51.492;10.368;2022-11-20T01:52:05;97997.47;;;-5.35;73.73
75317;BME280;63913;51.492;10.368;2022-11-20T01:55:00;97994.84;;;-5.37;74.09
75317;BME280;63913;51.492;10.368;2022-11-20T01:57:25;97995.31;;;-5.31;74.02
75317;BME280;63913;51.492;10.368;2022-11-20T01:59:57;97988.97;;;-5.38;73.93
75317;BME280;63913;51.492;10.368;2022-11-20T02:02:24;97989.19;;;-5.34;73.94
75317;BME280;63913;51.492;10.368;2022-11-20T02:04:52;97979.41;;;-5.31;73.64
75317;BME280;63913;51.492;10.368;2022-11-20T02:07:20;97983.31;;;-5.35;73.90
75317;BME280;63913;51.492;10.368;2022-11-20T02:09:47;97976.56;;;-5.36;74.00
75317;BME280;63913;51.492;10.368;2022-11-20T02:12:12;97981.03;;;-5.32;74.34
75317;BME280;63913;51.492;10.368;2022-11-20T02:14:57;97977.13;;;-5.28;73.37
75317;BME280;63913;51.492;10.368;2022-11-20T02:17:23;97983.66;;;-5.30;73.19
75317;BME280;63913;51.492;10.368;2022-11-20T02:19:49;97986.78;;;-5.33;73.12
75317;BME280;63913;51.492;10.368;2022-11-20T02:22:21;97982.09;;;-5.40;73.34
75317;BME280;63913;51.492;10.368;2022-11-20T02:24:49;97981.00;;;-5.44;73.74
75317;BME280;63913;51.492;10.368;2022-11-20T02:27:16;97978.38;;;-5.45;73.17
75317;BME280;63913;51.492;10.368;2022-11-20T02:29:52;97985.66;;;-5.48;73.64
75317;BME280;63913;51.492;10.368;2022-11-20T02:32:32;97989.16;;;-5.46;73.58
75317;BME280;63913;51.492;10.368;2022-11-20T02:35:06;97982.34;;;-5.59;74.29
75317;BME280;63913;51.492;10.368;2022-11-20T02:37:34;97987.34;;;-5.59;74.27
75317;BME280;63913;51.492;10.368;2022-11-20T02:40:01;97979.66;;;-5.50;73.98
75317;BME280;63913;51.492;10.368;2022-11-20T02:42:26;97976.50;;;-5.48;73.46
75317;BME280;63913;51.492;10.368;2022-11-20T02:44:51;97981.53;;;-5.48;73.54
75317;BME280;63913;51.492;10.368;2022-11-20T02:47:17;97984.91;;;-5.47;73.80
75317;BME280;63913;51.492;10.368;2022-11-20T02:49:42;97982.84;;;-5.41;73.58
75317;BME280;63913;51.492;10.368;2022-11-20T02:52:07;97976.88;;;-5.43;72.49
75317;BME280;63913;51.492;10.368;2022-11-20T02:54:33;97978.31;;;-5.57;73.14
75317;BME280;63913;51.492;10.368;2022-11-20T02:56:58;97969.25;;;-5.66;73.82
75317;BME280;63913;51.492;10.368;2022-11-20T02:59:23;97973.97;;;-5.59;73.81
75317;BME280;63913;51.492;10.368;2022-11-20T03:01:49;97969.06;;;-5.58;73.41
75317;BME280;63913;51.492;10.368;2022-11-20T03:04:14;97963.09;;;-5.60;73.62
75317;BME280;63913;51.492;10.368;2022-11-20T03:06:39;97964.19;;;-5.56;73.07
75317;BME280;63913;51.492;10.368;2022-11-20T03:09:05;97956.47;;;-5.59;73.00
75317;BME280;63913;51.492;10.368;2022-11-20T03:11:30;97959.91;;;-5.57;72.96
75317;BME280;63913;51.492;10.368;2022-11-20T03:13:55;97965.53;;;-5.71;73.40
75317;BME280;63913;51.492;10.368;2022-11-20T03:16:22;97972.03;;;-5.73;73.76
75317;BME280;63913;51.492;10.368;2022-11-20T03:18:49;97973.03;;;-5.71;73.96
75317;BME280;63913;51.492;10.368;2022-11-20T03:21:15;97967.78;;;-5.74;74.16
75317;BME280;63913;51.492;10.368;2022-11-20T03:23:41;97970.53;;;-5.71;73.96
75317;BME280;63913;51.492;10.368;2022-11-20T03:28:33;97959.72;;;-5.60;73.25
75317;BME280;63913;51.492;10.368;2022-11-20T03:31:05;97960.47;;;-5.61;73.08
75317;BME280;63913;51.492;10.368;2022-11-20T03:33:30;97960.97;;;-5.65;73.52
75317;BME280;63913;51.492;10.368;2022-11-20T03:36:01;97955.00;;;-5.67;73.02
75317;BME280;63913;51.492;10.368;2022-11-20T03:38:29;97960.53;;;-5.71;73.37
75317;BME280;63913;51.492;10.368;2022-11-20T03:40:59;97957.03;;;-5.73;73.64
75317;BME280;63913;51.492;10.368;2022-11-20T03:43:24;97954.69;;;-5.82;73.93
75317;BME280;63913;51.492;10.368;2022-11-20T03:45:50;97955.06;;;-5.78;73.58
75317;BME280;63913;51.492;10.368;2022-11-20T03:48:15;97954.41;;;-5.75;73.46
75317;BME280;63913;51.492;10.368;2022-11-20T03:50:40;97957.91;;;-5.73;73.43
75317;BME280;63913;51.492;10.368;2022-11-20T03:53:05;97960.78;;;-5.68;72.95
75317;BME280;63913;51.492;10.368;2022-11-20T03:55:31;97963.16;;;-5.70;73.42
75317;BME280;63913;51.492;10.368;2022-11-20T03:57:56;97958.16;;;-5.70;72.94
75317;BME280;63913;51.492;10.368;2022-11-20T04:00:21;97949.41;;;-5.75;72.76
75317;BME280;63913;51.492;10.368;2022-11-20T04:02:47;97937.88;;;-5.73;73.03
75317;BME280;63913;51.492;10.368;2022-11-20T04:05:12;97941.13;;;-5.74;73.11
75317;BME280;63913;51.492;10.368;2022-11-20T04:07:37;97938.53;;;-5.75;73.17
75317;BME280;63913;51.492;10.368;2022-11-20T04:10:03;97934.69;;;-5.82;73.73
75317;BME280;63913;51.492;10.368;2022-11-20T04:12:32;97936.22;;;-5.84;73.51
75317;BME280;63913;51.492;10.368;2022-11-20T04:14:57;97934.69;;;-5.82;73.42
75317;BME280;63913;51.492;10.368;2022-11-20T04:17:22;97939.25;;;-5.88;73.76
75317;BME280;63913;51.492;10.368;2022-11-20T04:19:48;97942.31;;;-5.81;73.73
75317;BME280;63913;51.492;10.368;2022-11-20T04:22:13;97941.31;;;-5.83;73.93
75317;BME280;63913;51.492;10.368;2022-11-20T04:24:38;97933.53;;;-5.75;73.62
75317;BME280;63913;51.492;10.368;2022-11-20T04:27:03;97934.28;;;-5.77;73.66
75317;BME280;63913;51.492;10.368;2022-11-20T04:29:29;97925.78;;;-5.79;73.83
75317;BME280;63913;51.492;10.368;2022-11-20T04:31:54;97919.38;;;-5.75;73.86
75317;BME280;63913;51.492;10.368;2022-11-20T04:34:19;97924.72;;;-5.70;73.26
75317;BME280;63913;51.492;10.368;2022-11-20T04:36:48;97915.03;;;-5.78;73.10
75317;BME280;63913;51.492;10.368;2022-11-20T04:39:14;97919.03;;;-5.80;73.55
75317;BME280;63913;51.492;10.368;2022-11-20T04:41:40;97922.16;;;-5.82;73.98
75317;BME280;63913;51.492;10.368;2022-11-20T04:44:06;97929.66;;;-5.82;73.77
75317;BME280;63913;51.492;10.368;2022-11-20T04:46:37;97927.41;;;-5.79;73.89
75317;BME280;63913;51.492;10.368;2022-11-20T04:49:03;97927.63;;;-5.88;73.88
75317;BME280;63913;51.492;10.368;2022-11-20T04:51:29;97924.78;;;-5.92;74.25
75317;BME280;63913;51.492;10.368;2022-11-20T04:53:54;97928.03;;;-5.82;73.47
75317;BME280;63913;51.492;10.368;2022-11-20T04:56:19;97928.78;;;-5.83;73.49
75317;BME280;63913;51.492;10.368;2022-11-20T04:58:45;97923.38;;;-5.89;73.74
75317;BME280;63913;51.492;10.368;2022-11-20T05:01:13;97935.88;;;-5.89;73.59
75317;BME280;63913;51.492;10.368;2022-11-20T05:03:39;97927.03;;;-5.95;73.51
75317;BME280;63913;51.492;10.368;2022-11-20T05:06:06;97924.09;;;-6.01;74.40
75317;BME280;63913;51.492;10.368;2022-11-20T05:08:32;97920.06;;;-5.99;74.24
75317;BME280;63913;51.492;10.368;2022-11-20T05:11:05;97921.50;;;-5.91;73.69
75317;BME280;63913;51.492;10.368;2022-11-20T05:13:31;97923.66;;;-5.96;73.64
75317;BME280;63913;51.492;10.368;2022-11-20T05:16:05;97920.72;;;-6.02;74.06
75317;BME280;63913;51.492;10.368;2022-11-20T05:18:31;97917.09;;;-6.05;74.15
75317;BME280;63913;51.492;10.368;2022-11-20T05:20:57;97918.53;;;-5.97;73.98
75317;BME280;63913;51.492;10.368;2022-11-20T05:23:23;97921.72;;;-6.00;73.99
75317;BME280;63913;51.492;10.368;2022-11-20T05:25:51;97922.69;;;-5.98;74.04
75317;BME280;63913;51.492;10.368;2022-11-20T05:28:17;97921.16;;;-5.96;74.09
75317;BME280;63913;51.492;10.368;2022-11-20T05:30:45;97918.78;;;-5.94;74.08
75317;BME280;63913;51.492;10.368;2022-11-20T05:33:10;97909.28;;;-5.98;73.97
75317;BME280;63913;51.492;10.368;2022-11-20T05:35:36;97919.28;;;-5.98;74.16
75317;BME280;63913;51.492;10.368;2022-11-20T05:38:01;97917.84;;;-6.06;74.16
75317;BME280;63913;51.492;10.368;2022-11-20T05:40:26;97919.00;;;-6.13;74.66
75317;BME280;63913;51.492;10.368;2022-11-20T05:42:51;97917.81;;;-6.18;75.10
75317;BME280;63913;51.492;10.368;2022-11-20T05:45:17;97912.75;;;-6.08;75.20
75317;BME280;63913;51.492;10.368;2022-11-20T05:47:42;97910.16;;;-5.98;74.22
75317;BME280;63913;51.492;10.368;2022-11-20T05:50:07;97913.97;;;-6.03;74.14
75317;BME280;63913;51.492;10.368;2022-11-20T05:52:33;97915.34;;;-6.06;74.67
75317;BME280;63913;51.492;10.368;2022-11-20T05:54:58;97906.91;;;-5.97;74.09
75317;BME280;63913;51.492;10.368;2022-11-20T05:57:23;97911.78;;;-5.98;73.93
75317;BME280;63913;51.492;10.368;2022-11-20T05:59:49;97902.03;;;-5.95;73.06
75317;BME280;63913;51.492;10.368;2022-11-20T06:02:14;97912.22;;;-6.04;73.55
75317;BME280;63913;51.492;10.368;2022-11-20T06:04:39;97915.00;;;-6.11;73.84
75317;BME280;63913;51.492;10.368;2022-11-20T06:07:05;97913.13;;;-6.13;74.01
75317;BME280;63913;51.492;10.368;2022-11-20T06:09:38;97905.75;;;-6.12;74.41
75317;BME280;63913;51.492;10.368;2022-11-20T06:12:04;97911.75;;;-6.10;74.55
75317;BME280;63913;51.492;10.368;2022-11-20T06:14:30;97907.50;;;-6.11;74.65
75317;BME280;63913;51.492;10.368;2022-11-20T06:16:55;97910.25;;;-6.08;73.93
75317;BME280;63913;51.492;10.368;2022-11-20T06:19:20;97917.84;;;-6.06;73.74
75317;BME280;63913;51.492;10.368;2022-11-20T06:21:47;97915.19;;;-6.20;74.63
75317;BME280;63913;51.492;10.368;2022-11-20T06:24:13;97914.53;;;-6.17;74.88
75317;BME280;63913;51.492;10.368;2022-11-20T06:26:38;97916.75;;;-6.10;74.44
75317;BME280;63913;51.492;10.368;2022-11-20T06:29:03;97916.22;;;-6.06;73.96
75317;BME280;63913;51.492;10.368;2022-11-20T06:31:29;97911.88;;;-6.08;73.93
75317;BME280;63913;51.492;10.368;2022-11-20T06:33:55;97921.31;;;-6.16;74.01
75317;BME280;63913;51.492;10.368;2022-11-20T06:36:22;97917.50;;;-6.11;73.53
75317;BME280;63913;51.492;10.368;2022-11-20T06:38:48;97920.13;;;-6.09;73.69
75317;BME280;63913;51.492;10.368;2022-11-20T06:41:16;97919.63;;;-6.16;73.82
75317;BME280;63913;51.492;10.368;2022-11-20T06:43:42;97928.16;;;-6.13;73.48
75317;BME280;63913;51.492;10.368;2022-11-20T06:46:09;97923.56;;;-6.19;73.77
75317;BME280;63913;51.492;10.368;2022-11-20T06:48:34;97916.50;;;-6.13;73.49
75317;BME280;63913;51.492;10.368;2022-11-20T06:51:03;97913.88;;;-6.14;73.75
75317;BME280;63913;51.492;10.368;2022-11-20T06:53:28;97921.81;;;-6.20;73.92
75317;BME280;63913;51.492;10.368;2022-11-20T06:55:55;97915.41;;;-6.17;73.83
75317;BME280;63913;51.492;10.368;2022-11-20T06:58:21;97906.38;;;-6.14;74.04
75317;BME280;63913;51.492;10.368;2022-11-20T07:00:46;97918.88;;;-6.14;74.34
75317;BME280;63913;51.492;10.368;2022-11-20T07:03:12;97913.31;;;-6.22;74.66
75317;BME280;63913;51.492;10.368;2022-11-20T07:05:37;97909.06;;;-6.23;75.08
75317;BME280;63913;51.492;10.368;2022-11-20T07:08:04;97911.47;;;-6.25;74.71
75317;BME280;63913;51.492;10.368;2022-11-20T07:10:30;97913.97;;;-6.25;74.84
75317;BME280;63913;51.492;10.368;2022-11-20T07:12:56;97918.09;;;-6.25;74.67
75317;BME280;63913;51.492;10.368;2022-11-20T07:15:23;97912.81;;;-6.18;74.74
75317;BME280;63913;51.492;10.368;2022-11-20T07:17:48;97911.50;;;-6.13;74.50
75317;BME280;63913;51.492;10.368;2022-11-20T07:20:14;97910.63;;;-6.13;74.80
75317;BME280;63913;51.492;10.368;2022-11-20T07:22:40;97912.25;;;-6.14;74.58
75317;BME280;63913;51.492;10.368;2022-11-20T07:25:07;97911.00;;;-6.09;74.25
75317;BME280;63913;51.492;10.368;2022-11-20T07:27:33;97913.59;;;-6.07;74.11
75317;BME280;63913;51.492;10.368;2022-11-20T07:29:59;97908.09;;;-6.03;74.31
75317;BME280;63913;51.492;10.368;2022-11-20T07:32:25;97911.03;;;-5.97;74.09
75317;BME280;63913;51.492;10.368;2022-11-20T07:34:51;97900.81;;;-6.00;74.02
75317;BME280;63913;51.492;10.368;2022-11-20T07:37:16;97903.31;;;-6.00;74.22
75317;BME280;63913;51.492;10.368;2022-11-20T07:39:42;97899.41;;;-5.97;73.83
75317;BME280;63913;51.492;10.368;2022-11-20T07:42:08;97910.28;;;-5.96;74.02
75317;BME280;63913;51.492;10.368;2022-11-20T07:44:34;97904.53;;;-5.95;74.22
75317;BME280;63913;51.492;10.368;2022-11-20T07:46:59;97902.53;;;-5.99;74.71
75317;BME280;63913;51.492;10.368;2022-11-20T07:49:24;97905.13;;;-6.09;75.01
75317;BME280;63913;51.492;10.368;2022-11-20T07:51:50;97907.84;;;-6.06;74.86
75317;BME280;63913;51.492;10.368;2022-11-20T07:54:18;97914.38;;;-6.08;75.02
75317;BME280;63913;51.492;10.368;2022-11-20T07:56:43;97912.13;;;-6.16;75.62
75317;BME280;63913;51.492;10.368;2022-11-20T07:59:09;97909.38;;;-6.08;75.84
75317;BME280;63913;51.492;10.368;2022-11-20T08:01:36;97918.13;;;-6.13;76.13
75317;BME280;63913;51.492;10.368;2022-11-20T08:04:02;97909.88;;;-6.12;76.26
75317;BME280;63913;51.492;10.368;2022-11-20T08:06:27;97906.50;;;-6.13;75.90
75317;BME280;63913;51.492;10.368;2022-11-20T08:08:52;97908.97;;;-6.03;75.53
75317;BME280;63913;51.492;10.368;2022-11-20T08:11:18;97917.66;;;-5.98;75.05
75317;BME280;63913;51.492;10.368;2022-11-20T08:14:01;97915.16;;;-5.98;75.23
75317;BME280;63913;51.492;10.368;2022-11-20T08:16:40;97923.09;;;-6.03;75.76
75317;BME280;63913;51.492;10.368;2022-11-20T08:19:06;97931.47;;;-6.03;75.48
75317;BME280;63913;51.492;10.368;2022-11-20T08:21:31;97925.72;;;-6.02;76.11
75317;BME280;63913;51.492;10.368;2022-11-20T08:23:57;97940.56;;;-5.93;76.02
75317;BME280;63913;51.492;10.368;2022-11-20T08:26:24;97933.47;;;-5.87;75.86
75317;BME280;63913;51.492;10.368;2022-11-20T08:28:52;97938.81;;;-5.83;76.43
75317;BME280;63913;51.492;10.368;2022-11-20T08:31:17;97936.44;;;-5.93;78.09
75317;BME280;63913;51.492;10.368;2022-11-20T08:33:43;97942.66;;;-5.76;77.50
75317;BME280;63913;51.492;10.368;2022-11-20T08:36:11;97933.31;;;-5.67;77.80
75317;BME280;63913;51.492;10.368;2022-11-20T08:38:37;97941.63;;;-5.56;78.81
75317;BME280;63913;51.492;10.368;2022-11-20T08:41:04;97937.97;;;-5.50;78.65
75317;BME280;63913;51.492;10.368;2022-11-20T08:43:49;97947.78;;;-5.41;78.82
75317;BME280;63913;51.492;10.368;2022-11-20T08:46:15;97943.91;;;-5.26;78.78
75317;BME280;63913;51.492;10.368;2022-11-20T08:48:41;97946.53;;;-5.24;81.09
75317;BME280;63913;51.492;10.368;2022-11-20T08:51:06;97944.19;;;-5.11;80.97
75317;BME280;63913;51.492;10.368;2022-11-20T08:53:31;97948.75;;;-5.06;81.62
75317;BME280;63913;51.492;10.368;2022-11-20T08:55:57;97945.59;;;-4.91;81.53
75317;BME280;63913;51.492;10.368;2022-11-20T08:58:23;97937.88;;;-4.83;81.71
75317;BME280;63913;51.492;10.368;2022-11-20T09:00:49;97951.19;;;-4.72;81.80
75317;BME280;63913;51.492;10.368;2022-11-20T09:03:14;97949.13;;;-4.66;81.85
75317;BME280;63913;51.492;10.368;2022-11-20T09:05:39;97953.25;;;-4.67;81.89
75317;BME280;63913;51.492;10.368;2022-11-20T09:08:05;97947.78;;;-4.61;82.02
75317;BME280;63913;51.492;10.368;2022-11-20T09:10:30;97949.00;;;-4.56;82.45
75317;BME280;63913;51.492;10.368;2022-11-20T09:12:56;97955.44;;;-4.48;82.13
75317;BME280;63913;51.492;10.368;2022-11-20T09:15:22;97958.94;;;-4.46;82.32
75317;BME280;63913;51.492;10.368;2022-11-20T09:17:56;97952.25;;;-4.45;82.51
75317;BME280;63913;51.492;10.368;2022-11-20T09:20:22;97950.72;;;-4.43;82.22
75317;BME280;63913;51.492;10.368;2022-11-20T09:22:49;97946.38;;;-4.34;82.29
75317;BME280;63913;51.492;10.368;2022-11-20T09:25:15;97942.34;;;-4.32;82.49
75317;BME280;63913;51.492;10.368;2022-11-20T09:27:40;97934.59;;;-4.24;82.27
75317;BME280;63913;51.492;10.368;2022-11-20T09:30:11;97941.66;;;-4.18;82.10
75317;BME280;63913;51.492;10.368;2022-11-20T09:32:38;97930.19;;;-4.14;81.70
75317;BME280;63913;51.492;10.368;2022-11-20T09:35:04;97932.38;;;-4.07;81.82
75317;BME280;63913;51.492;10.368;2022-11-20T09:37:30;97921.81;;;-4.15;81.79
75317;BME280;63913;51.492;10.368;2022-11-20T09:39:55;97927.13;;;-4.10;81.97
75317;BME280;63913;51.492;10.368;2022-11-20T09:51:16;97917.25;;;-3.59;81.27
75317;BME280;63913;51.492;10.368;2022-11-20T09:54:15;97911.38;;;-3.47;80.99
75317;BME280;63913;51.492;10.368;2022-11-20T09:56:44;97912.75;;;-3.38;81.22
75317;BME280;63913;51.492;10.368;2022-11-20T09:59:33;97900.81;;;-3.29;81.13
75317;BME280;63913;51.492;10.368;2022-11-20T10:02:02;97915.88;;;-3.29;80.33
75317;BME280;63913;51.492;10.368;2022-11-20T10:04:31;97898.09;;;-3.32;80.79
75317;BME280;63913;51.492;10.368;2022-11-20T10:07:21;97902.66;;;-3.27;80.49
75317;BME280;63913;51.492;10.368;2022-11-20T10:09:50;97901.00;;;-3.26;80.46
75317;BME280;63913;51.492;10.368;2022-11-20T10:15:00;97895.50;;;-3.21;80.04
75317;BME280;63913;51.492;10.368;2022-11-20T10:20:46;97876.84;;;-3.24;79.87
75317;BME280;63913;51.492;10.368;2022-11-20T10:23:34;97885.56;;;-3.19;79.77
75317;BME280;63913;51.492;10.368;2022-11-20T10:26:12;97898.00;;;-3.21;80.30
75317;BME280;63913;51.492;10.368;2022-11-20T10:28:53;97900.63;;;-3.19;80.47
75317;BME280;63913;51.492;10.368;2022-11-20T10:31:34;97892.50;;;-3.15;79.96
75317;BME280;63913;51.492;10.368;2022-11-20T10:34:06;97885.19;;;-3.12;79.78
75317;BME280;63913;51.492;10.368;2022-11-20T10:36:43;97888.66;;;-3.10;79.84
75317;BME280;63913;51.492;10.368;2022-11-20T10:39:28;97883.44;;;-3.13;79.72
75317;BME280;63913;51.492;10.368;2022-11-20T10:41:55;97877.53;;;-3.14;80.06
75317;BME280;63913;51.492;10.368;2022-11-20T10:44:28;97875.50;;;-3.06;80.00
75317;BME280;63913;51.492;10.368;2022-11-20T10:47:17;97877.47;;;-3.02;79.52
75317;BME280;63913;51.492;10.368;2022-11-20T10:49:46;97879.47;;;-2.96;79.66
75317;BME280;63913;51.492;10.368;2022-11-20T10:52:22;97882.88;;;-2.96;79.37
75317;BME280;63913;51.492;10.368;2022-11-20T10:54:56;97880.63;;;-2.91;79.15
75317;BME280;63913;51.492;10.368;2022-11-20T11:00:12;97873.41;;;-2.87;79.41
75317;BME280;63913;51.492;10.368;2022-11-20T11:02:46;97870.41;;;-2.81;79.26
75317;BME280;63913;51.492;10.368;2022-11-20T11:07:51;97862.88;;;-2.68;78.83
75317;BME280;63913;51.492;10.368;2022-11-20T11:10:22;97856.97;;;-2.68;78.96
75317;BME280;63913;51.492;10.368;2022-11-20T11:12:49;97848.91;;;-2.63;78.76
75317;BME280;63913;51.492;10.368;2022-11-20T11:15:39;97842.91;;;-2.52;78.31
75317;BME280;63913;51.492;10.368;2022-11-20T11:18:05;97838.91;;;-2.48;77.67
75317;BME280;63913;51.492;10.368;2022-11-20T11:20:33;97841.03;;;-2.41;77.89
75317;BME280;63913;51.492;10.368;2022-11-20T11:22:59;97839.09;;;-2.32;77.82
75317;BME280;63913;51.492;10.368;2022-11-20T11:25:29;97830.97;;;-2.28;77.37
75317;BME280;63913;51.492;10.368;2022-11-20T11:28:01;97834.59;;;-2.23;77.49
75317;BME280;63913;51.492;10.368;2022-11-20T11:30:39;97824.03;;;-2.17;77.64
75317;BME280;63913;51.492;10.368;2022-11-20T11:33:08;97821.81;;;-2.13;76.84
75317;BME280;63913;51.492;10.368;2022-11-20T11:35:43;97815.22;;;-2.11;76.82
75317;BME280;63913;51.492;10.368;2022-11-20T11:38:16;97817.31;;;-2.04;76.58
75317;BME280;63913;51.492;10.368;2022-11-20T11:40:46;97811.56;;;-2.01;76.61
75317;BME280;63913;51.492;10.368;2022-11-20T11:43:20;97811.97;;;-1.95;76.46
75317;BME280;63913;51.492;10.368;2022-11-20T11:46:25;97813.28;;;-1.87;76.89
75317;BME280;63913;51.492;10.368;2022-11-20T11:48:56;97805.72;;;-1.87;75.74
75317;BME280;63913;51.492;10.368;2022-11-20T11:51:22;97806.16;;;-1.79;75.93
75317;BME280;63913;51.492;10.368;2022-11-20T11:53:47;97813.28;;;-1.72;76.34
75317;BME280;63913;51.492;10.368;2022-11-20T11:56:13;97811.13;;;-1.66;76.02
75317;BME280;63913;51.492;10.368;2022-11-20T11:58:51;97805.50;;;-1.62;75.46
75317;BME280;63913;51.492;10.368;2022-11-20T12:04:24;97800.91;;;-1.55;75.43
75317;BME280;63913;51.492;10.368;2022-11-20T12:07:03;97802.00;;;-1.49;75.35
75317;BME280;63913;51.492;10.368;2022-11-20T12:09:37;97800.63;;;-1.44;75.28
75317;BME280;63913;51.492;10.368;2022-11-20T12:12:09;97798.38;;;-1.40;75.04
75317;BME280;63913;51.492;10.368;2022-11-20T12:14:37;97797.84;;;-1.34;74.63
75317;BME280;63913;51.492;10.368;2022-11-20T12:17:04;97794.53;;;-1.33;74.69
75317;BME280;63913;51.492;10.368;2022-11-20T12:19:33;97784.63;;;-1.30;73.98
75317;BME280;63913;51.492;10.368;2022-11-20T12:25:02;97777.13;;;-1.29;72.79
75317;BME280;63913;51.492;10.368;2022-11-20T12:27:51;97772.28;;;-1.26;73.47
75317;BME280;63913;51.492;10.368;2022-11-20T12:30:21;97766.00;;;-1.18;73.73
75317;BME280;63913;51.492;10.368;2022-11-20T12:43:24;97770.09;;;-0.89;71.47
75317;BME280;63913;51.492;10.368;2022-11-20T12:46:22;97771.34;;;-0.82;71.08
75317;BME280;63913;51.492;10.368;2022-11-20T12:51:39;97768.19;;;-0.78;70.25
75317;BME280;63913;51.492;10.368;2022-11-20T13:00:14;97759.25;;;-0.57;70.20
75317;BME280;63913;51.492;10.368;2022-11-20T13:03:03;97761.53;;;-0.45;70.22
75317;BME280;63913;51.492;10.368;2022-11-20T13:08:39;97746.78;;;-0.21;69.71
75317;BME280;63913;51.492;10.368;2022-11-20T13:14:06;97747.66;;;-0.05;68.96
75317;BME280;63913;51.492;10.368;2022-11-20T13:16:53;97744.88;;;0.07;68.89
75317;BME280;63913;51.492;10.368;2022-11-20T13:19:20;97741.69;;;0.11;68.82
75317;BME280;63913;51.492;10.368;2022-11-20T13:21:48;97742.66;;;0.13;68.71
75317;BME280;63913;51.492;10.368;2022-11-20T13:24:32;97743.19;;;0.24;68.34
75317;BME280;63913;51.492;10.368;2022-11-20T13:29:41;97730.97;;;0.33;67.97
75317;BME280;63913;51.492;10.368;2022-11-20T13:32:16;97736.38;;;0.39;67.17
75317;BME280;63913;51.492;10.368;2022-11-20T13:34:56;97733.09;;;0.42;67.32
75317;BME280;63913;51.492;10.368;2022-11-20T13:37:34;97739.69;;;0.38;66.83
75317;BME280;63913;51.492;10.368;2022-11-20T13:42:37;97744.03;;;0.41;66.52
75317;BME280;63913;51.492;10.368;2022-11-20T13:45:10;97750.38;;;0.32;65.93
75317;BME280;63913;51.492;10.368;2022-11-20T13:47:36;97736.91;;;0.33;66.53
75317;BME280;63913;51.492;10.368;2022-11-20T13:50:04;97737.00;;;0.35;65.95
75317;BME280;63913;51.492;10.368;2022-11-20T13:52:46;97734.38;;;0.33;66.14
75317;BME280;63913;51.492;10.368;2022-11-20T13:58:27;97718.75;;;0.41;65.32
75317;BME280;63913;51.492;10.368;2022-11-20T14:01:00;97718.59;;;0.37;65.21
75317;BME280;63913;51.492;10.368;2022-11-20T14:03:29;97709.09;;;0.33;65.38